Time;durP1;ratioP1;P1;durP2;ratioP2;P2;SDS_P1;SDS_P2;PMS_P1;PMS_P2;Temp;Humidity;BMP_temperature;BMP_pressure;BME280_temperature;BME280_humidity;BME280_pressure;Samples;Min_cycle;Max_cycle;Signal;HPM_P1;HPM_P2
2024/01/29 00:00:52;;;;;;;1.93;1.07;;;9.80;80.10;;;;;;5050430;28;20039;-54
2024/01/29 00:03:17;;;;;;;3.47;1.60;;;9.80;80.30;;;;;;5050142;28;20120;-54
2024/01/29 00:05:44;;;;;;;1.80;0.80;;;9.80;80.10;;;;;;5050072;28;20091;-53
2024/01/29 00:08:10;;;;;;;3.00;1.10;;;9.90;79.90;;;;;;5050420;28;20107;-53
2024/01/29 00:10:35;;;;;;;2.13;1.00;;;9.80;80.20;;;;;;5050320;28;20441;-53
2024/01/29 00:13:01;;;;;;;2.17;1.03;;;9.80;80.30;;;;;;5050647;28;20029;-51
2024/01/29 00:15:27;;;;;;;2.90;1.07;;;9.80;80.40;;;;;;5052927;28;20063;-51
2024/01/29 00:17:52;;;;;;;3.17;1.17;;;9.80;80.30;;;;;;5053771;28;20055;-53
2024/01/29 00:20:18;;;;;;;2.50;1.13;;;9.80;80.70;;;;;;5053956;28;20534;-53
2024/01/29 00:22:43;;;;;;;1.77;0.97;;;9.80;80.60;;;;;;5054055;28;20040;-54
2024/01/29 00:25:09;;;;;;;2.53;1.30;;;9.70;80.50;;;;;;5053734;28;20033;-54
2024/01/29 00:27:35;;;;;;;2.87;1.10;;;9.70;80.70;;;;;;5053995;28;20029;-50
2024/01/29 00:30:03;;;;;;;3.57;1.30;;;9.70;81.00;;;;;;5053598;28;20045;-54
2024/01/29 00:32:29;;;;;;;2.38;0.90;;;9.70;81.00;;;;;;5053854;28;20025;-51
2024/01/29 00:34:56;;;;;;;2.97;1.33;;;9.70;81.20;;;;;;5053710;28;20021;-54
2024/01/29 00:37:22;;;;;;;3.50;1.20;;;9.70;81.20;;;;;;5054026;28;20063;-53
2024/01/29 00:39:49;;;;;;;3.30;1.23;;;9.70;81.30;;;;;;5053647;28;20033;-54
2024/01/29 00:42:15;;;;;;;4.37;1.50;;;9.70;81.60;;;;;;5054074;28;20422;-53
2024/01/29 00:44:42;;;;;;;3.03;1.10;;;9.60;81.40;;;;;;5053600;28;20059;-52
2024/01/29 00:47:09;;;;;;;2.73;1.03;;;9.60;82.00;;;;;;5053644;28;20053;-54
2024/01/29 00:49:35;;;;;;;2.13;1.07;;;9.60;81.60;;;;;;5053493;28;20116;-52
2024/01/29 00:52:02;;;;;;;3.13;1.27;;;9.60;81.80;;;;;;5053668;28;20538;-55
2024/01/29 00:54:27;;;;;;;2.87;1.27;;;9.50;82.00;;;;;;5052154;28;20571;-53
2024/01/29 00:56:53;;;;;;;3.10;0.97;;;9.50;82.20;;;;;;5053646;28;20033;-54
2024/01/29 00:59:19;;;;;;;2.67;1.37;;;9.50;82.20;;;;;;5053482;28;20111;-51
2024/01/29 01:01:44;;;;;;;3.47;1.10;;;9.50;82.40;;;;;;5053667;28;20104;-50
2024/01/29 01:04:10;;;;;;;2.67;1.00;;;9.40;82.60;;;;;;5053337;28;20440;-50
2024/01/29 01:06:36;;;;;;;3.20;1.20;;;9.50;82.50;;;;;;5053531;28;20037;-54
2024/01/29 01:09:03;;;;;;;1.93;1.00;;;9.40;82.90;;;;;;5053012;28;20037;-51
2024/01/29 01:11:28;;;;;;;3.07;1.30;;;9.40;83.00;;;;;;5053444;28;20037;-55
2024/01/29 01:13:54;;;;;;;3.87;1.47;;;9.50;82.90;;;;;;5053205;28;20436;-54
2024/01/29 01:16:20;;;;;;;2.77;1.27;;;9.40;82.90;;;;;;5053048;28;20032;-54
2024/01/29 01:18:46;;;;;;;4.10;1.30;;;9.40;83.20;;;;;;5053080;28;20450;-54
2024/01/29 01:21:11;;;;;;;3.73;1.33;;;9.40;83.40;;;;;;5053281;28;20024;-51
2024/01/29 01:23:38;;;;;;;5.13;1.40;;;9.40;83.40;;;;;;5052911;28;20559;-53
2024/01/29 01:26:04;;;;;;;3.13;1.50;;;9.40;83.50;;;;;;5051771;28;20049;-51
2024/01/29 01:28:30;;;;;;;2.47;1.20;;;9.30;83.80;;;;;;5052959;28;20029;-51
2024/01/29 01:30:55;;;;;;;2.43;1.10;;;9.30;84.10;;;;;;5053252;28;20138;-50
2024/01/29 01:33:21;;;;;;;2.60;1.30;;;9.30;84.30;;;;;;5052826;28;20079;-50
2024/01/29 01:35:47;;;;;;;2.87;1.60;;;9.40;84.30;;;;;;5052965;28;20486;-50
2024/01/29 01:38:12;;;;;;;2.30;1.10;;;9.30;84.50;;;;;;5053033;28;20025;-53
2024/01/29 01:40:38;;;;;;;3.30;1.17;;;9.30;84.60;;;;;;5053051;28;20031;-53
2024/01/29 01:43:21;;;;;;;2.03;1.07;;;9.30;84.90;;;;;;5052797;28;20073;-52
2024/01/29 01:46:06;;;;;;;3.20;1.20;;;9.30;84.90;;;;;;5052957;28;20346;-51
2024/01/29 01:48:35;;;;;;;3.20;1.13;;;9.30;85.30;;;;;;5052851;28;20482;-54
2024/01/29 01:51:02;;;;;;;2.83;1.23;;;9.30;85.40;;;;;;5052806;28;20033;-54
2024/01/29 01:53:35;;;;;;;5.80;1.53;;;9.20;85.60;;;;;;5052576;28;20071;-52
2024/01/29 01:56:01;;;;;;;5.17;1.40;;;9.20;85.80;;;;;;5052646;28;20057;-55
2024/01/29 01:58:27;;;;;;;1.83;1.10;;;9.10;86.10;;;;;;5052399;28;20083;-53
2024/01/29 02:00:55;;;;;;;2.23;1.00;;;9.10;86.50;;;;;;5052555;28;20036;-54
2024/01/29 02:03:21;;;;;;;1.67;0.93;;;9.10;86.50;;;;;;5052111;28;20032;-53
2024/01/29 02:05:47;;;;;;;2.83;1.40;;;9.20;86.50;;;;;;5052282;28;20063;-54
2024/01/29 02:08:15;;;;;;;3.40;1.67;;;9.20;86.60;;;;;;5052168;28;20367;-55
2024/01/29 02:10:40;;;;;;;4.10;1.27;;;9.20;86.90;;;;;;5052292;28;20052;-53
2024/01/29 02:13:14;;;;;;;3.97;1.57;;;9.10;87.40;;;;;;5050648;28;20035;-51
2024/01/29 02:15:40;;;;;;;2.80;1.30;;;9.10;87.60;;;;;;5052192;28;20097;-50
2024/01/29 02:18:06;;;;;;;2.30;1.03;;;9.10;87.50;;;;;;5051839;28;20033;-50
2024/01/29 02:20:32;;;;;;;2.40;1.10;;;9.10;87.50;;;;;;5052128;28;20128;-54
2024/01/29 02:22:58;;;;;;;4.40;1.80;;;9.10;87.80;;;;;;5051790;28;20029;-51
2024/01/29 02:25:24;;;;;;;2.93;1.30;;;9.10;88.30;;;;;;5051811;28;20045;-51
2024/01/29 02:27:49;;;;;;;3.57;1.30;;;9.10;88.40;;;;;;5051878;28;20048;-52
2024/01/29 02:30:15;;;;;;;3.33;1.30;;;9.10;88.50;;;;;;5051563;28;20032;-52
2024/01/29 02:32:41;;;;;;;2.60;1.13;;;9.00;88.70;;;;;;5051796;28;20024;-54
2024/01/29 02:35:06;;;;;;;2.00;1.20;;;9.10;89.00;;;;;;5051797;28;20112;-50
2024/01/29 02:37:33;;;;;;;3.47;1.47;;;9.00;89.00;;;;;;5051270;28;20021;-53
2024/01/29 02:39:58;;;;;;;2.60;1.43;;;9.00;89.50;;;;;;5051519;28;20446;-54
2024/01/29 02:42:24;;;;;;;2.53;1.20;;;9.00;89.30;;;;;;5051642;28;20075;-54
2024/01/29 02:44:50;;;;;;;2.57;1.30;;;9.00;89.60;;;;;;5051537;28;20474;-51
2024/01/29 02:47:15;;;;;;;3.47;1.23;;;9.00;90.00;;;;;;5051493;28;20040;-53
2024/01/29 02:49:43;;;;;;;3.93;1.40;;;9.00;89.80;;;;;;5051269;28;20079;-54
2024/01/29 02:52:09;;;;;;;4.53;1.47;;;9.00;90.10;;;;;;5051392;28;20383;-52
2024/01/29 02:54:35;;;;;;;6.17;1.43;;;9.00;90.10;;;;;;5051180;28;20120;-54
2024/01/29 02:57:00;;;;;;;3.03;1.30;;;9.00;90.10;;;;;;5049850;28;20100;-55
2024/01/29 02:59:26;;;;;;;4.47;1.27;;;9.00;90.20;;;;;;5051227;28;20087;-53
2024/01/29 03:01:53;;;;;;;3.67;1.20;;;9.00;90.30;;;;;;5051366;28;20419;-52
2024/01/29 03:04:18;;;;;;;3.27;1.20;;;9.00;90.30;;;;;;5049625;28;20025;-51
2024/01/29 03:06:44;;;;;;;4.10;1.23;;;9.00;90.40;;;;;;5051096;28;20319;-54
2024/01/29 03:09:09;;;;;;;4.03;1.40;;;9.00;90.50;;;;;;5050767;28;20039;-52
2024/01/29 03:11:35;;;;;;;2.93;1.27;;;9.00;90.50;;;;;;5051249;28;20024;-54
2024/01/29 03:14:01;;;;;;;3.23;1.47;;;9.00;90.50;;;;;;5050702;28;20052;-54
2024/01/29 03:16:26;;;;;;;3.20;1.53;;;9.00;90.60;;;;;;5050890;28;20131;-51
2024/01/29 03:18:52;;;;;;;3.17;1.30;;;9.00;90.80;;;;;;5050572;28;20060;-51
2024/01/29 03:21:18;;;;;;;4.00;1.20;;;9.00;90.90;;;;;;5050931;28;20195;-51
2024/01/29 03:23:43;;;;;;;2.10;1.07;;;9.00;91.20;;;;;;5050479;28;20365;-55
2024/01/29 03:26:09;;;;;;;2.83;1.20;;;8.90;91.00;;;;;;5050582;28;20079;-54
2024/01/29 03:28:34;;;;;;;3.67;1.77;;;8.90;91.10;;;;;;5050557;28;20029;-52
2024/01/29 03:31:00;;;;;;;4.17;1.50;;;8.90;91.10;;;;;;5049159;28;20029;-55
2024/01/29 03:33:26;;;;;;;2.43;1.23;;;8.90;91.30;;;;;;5050432;28;20045;-50
2024/01/29 03:35:51;;;;;;;2.80;1.20;;;8.90;91.40;;;;;;5050607;28;20037;-53
2024/01/29 03:38:17;;;;;;;3.30;1.37;;;8.80;91.50;;;;;;5050462;28;20032;-52
2024/01/29 03:40:43;;;;;;;2.70;1.10;;;8.80;91.50;;;;;;5049426;28;20029;-54
2024/01/29 03:43:08;;;;;;;4.30;1.50;;;8.90;91.60;;;;;;5050500;28;20071;-54
2024/01/29 03:45:35;;;;;;;2.97;1.00;;;8.90;91.70;;;;;;5050798;28;20123;-53
2024/01/29 03:48:00;;;;;;;1.93;1.20;;;8.90;91.70;;;;;;5048304;28;20048;-54
2024/01/29 03:50:26;;;;;;;2.87;1.17;;;8.90;91.80;;;;;;5050163;28;20346;-54
2024/01/29 03:52:51;;;;;;;3.80;1.30;;;8.80;91.80;;;;;;5050522;28;20047;-52
2024/01/29 03:55:17;;;;;;;1.60;1.27;;;8.80;92.00;;;;;;5050500;28;20439;-53
2024/01/29 03:57:43;;;;;;;2.00;1.33;;;8.80;92.00;;;;;;5050312;28;20029;-53
2024/01/29 04:00:09;;;;;;;2.43;1.23;;;8.80;92.00;;;;;;5050192;28;20029;-55
2024/01/29 04:02:37;;;;;;;2.93;1.30;;;8.80;92.10;;;;;;5050537;28;20120;-51
2024/01/29 04:05:02;;;;;;;4.17;1.50;;;8.70;92.40;;;;;;5050020;28;20144;-51
2024/01/29 04:07:28;;;;;;;2.70;1.30;;;8.60;92.60;;;;;;5050303;28;20025;-55
2024/01/29 04:09:54;;;;;;;3.10;1.30;;;8.60;92.90;;;;;;5048618;28;20389;-55
2024/01/29 04:12:19;;;;;;;1.67;1.03;;;8.50;93.00;;;;;;5050258;28;20021;-55
2024/01/29 04:14:45;;;;;;;6.07;1.60;;;8.50;93.20;;;;;;5050107;28;20121;-54
2024/01/29 04:17:12;;;;;;;3.43;1.53;;;8.50;93.20;;;;;;5050139;28;20032;-54
2024/01/29 04:19:38;;;;;;;4.47;1.60;;;8.50;93.40;;;;;;5050052;28;20479;-54
2024/01/29 04:22:04;;;;;;;2.10;1.10;;;8.50;93.50;;;;;;5050360;28;20381;-54
2024/01/29 04:24:30;;;;;;;2.97;1.50;;;8.40;93.70;;;;;;5050092;28;20064;-54
2024/01/29 04:26:56;;;;;;;3.00;1.30;;;8.40;93.80;;;;;;5050469;28;20060;-53
2024/01/29 04:29:22;;;;;;;2.30;1.20;;;8.50;93.80;;;;;;5050110;28;20476;-53
2024/01/29 04:31:47;;;;;;;2.83;1.20;;;8.50;94.00;;;;;;5050384;28;20083;-53
2024/01/29 04:34:13;;;;;;;3.23;1.27;;;8.40;94.00;;;;;;5049602;28;20029;-52
2024/01/29 04:36:38;;;;;;;2.43;1.30;;;8.40;94.20;;;;;;5050451;28;20108;-55
2024/01/29 04:39:04;;;;;;;2.93;1.30;;;8.30;94.40;;;;;;5048367;28;20025;-54
2024/01/29 04:41:30;;;;;;;3.07;1.37;;;8.30;94.60;;;;;;5050007;28;20037;-55
2024/01/29 04:43:56;;;;;;;3.23;1.40;;;8.30;94.70;;;;;;5049756;28;20279;-55
2024/01/29 04:46:23;;;;;;;5.83;1.60;;;8.30;94.80;;;;;;5049656;28;20037;-53
2024/01/29 04:48:49;;;;;;;3.20;1.33;;;8.30;94.90;;;;;;5049237;28;20025;-55
2024/01/29 04:51:15;;;;;;;2.77;1.40;;;8.30;94.90;;;;;;5049767;28;20037;-54
2024/01/29 04:53:40;;;;;;;3.20;1.27;;;8.30;95.10;;;;;;5049590;28;20021;-52
2024/01/29 04:56:07;;;;;;;4.50;1.33;;;8.20;95.20;;;;;;5049917;28;20374;-52
2024/01/29 04:58:32;;;;;;;3.50;1.27;;;8.30;95.40;;;;;;5049605;28;20036;-51
2024/01/29 05:00:59;;;;;;;3.03;1.40;;;8.30;95.40;;;;;;5053133;28;20662;-51
2024/01/29 05:03:25;;;;;;;3.07;1.60;;;8.30;95.60;;;;;;5051439;28;20092;-52
2024/01/29 05:05:51;;;;;;;3.17;1.23;;;8.20;95.80;;;;;;5053230;28;20032;-53
2024/01/29 05:08:18;;;;;;;3.13;1.70;;;8.10;96.00;;;;;;5053056;28;20052;-49
2024/01/29 05:10:45;;;;;;;4.20;1.50;;;8.20;96.10;;;;;;5052935;28;20037;-50
2024/01/29 05:13:11;;;;;;;2.57;1.53;;;8.10;96.20;;;;;;5052951;28;20540;-54
2024/01/29 05:15:36;;;;;;;3.13;1.50;;;8.20;96.40;;;;;;5068852;28;20041;-54
2024/01/29 05:18:02;;;;;;;1.83;1.00;;;8.10;96.40;;;;;;5053199;28;20059;-53
2024/01/29 05:20:29;;;;;;;7.70;2.90;;;8.10;96.60;;;;;;5052796;28;20033;-53
2024/01/29 05:22:55;;;;;;;5.13;1.80;;;8.10;97.00;;;;;;5052916;28;20405;-54
2024/01/29 05:25:21;;;;;;;3.70;1.50;;;8.00;97.00;;;;;;5052780;28;20041;-53
2024/01/29 05:27:46;;;;;;;3.20;1.50;;;8.10;97.10;;;;;;5052844;28;20037;-54
2024/01/29 05:30:12;;;;;;;3.27;1.57;;;8.10;97.30;;;;;;5052480;28;20398;-54
2024/01/29 05:32:38;;;;;;;3.10;1.40;;;8.10;97.20;;;;;;5052677;28;20037;-53
2024/01/29 05:35:04;;;;;;;5.63;1.60;;;8.10;97.40;;;;;;5052865;28;20029;-51
2024/01/29 05:37:32;;;;;;;4.73;1.60;;;8.10;97.50;;;;;;5052512;28;20033;-54
2024/01/29 05:39:57;;;;;;;3.60;1.63;;;7.90;97.90;;;;;;5052285;28;20037;-54
2024/01/29 05:42:23;;;;;;;2.77;1.50;;;7.90;98.00;;;;;;5052343;28;20028;-54
2024/01/29 05:44:50;;;;;;;2.37;1.50;;;8.00;98.10;;;;;;5052227;28;20067;-55
2024/01/29 05:47:16;;;;;;;2.57;1.50;;;7.90;98.10;;;;;;5051996;28;20350;-54
2024/01/29 05:49:42;;;;;;;3.33;1.57;;;8.00;98.30;;;;;;5051933;28;20108;-55
2024/01/29 05:52:07;;;;;;;6.37;2.23;;;7.90;98.30;;;;;;5052057;28;20112;-55
2024/01/29 05:54:33;;;;;;;3.90;1.67;;;7.90;98.60;;;;;;5051849;28;20032;-51
2024/01/29 05:56:59;;;;;;;3.60;1.40;;;7.90;98.80;;;;;;5051880;28;20032;-54
2024/01/29 05:59:25;;;;;;;4.27;1.63;;;7.80;98.90;;;;;;5051743;28;20029;-54
2024/01/29 06:01:50;;;;;;;4.43;1.67;;;7.90;99.00;;;;;;5052097;28;20039;-54
2024/01/29 06:04:16;;;;;;;6.57;2.00;;;7.90;99.10;;;;;;5051922;28;20381;-53
2024/01/29 06:06:43;;;;;;;3.13;1.40;;;7.80;99.20;;;;;;5052225;28;20041;-54
2024/01/29 06:09:09;;;;;;;3.97;1.83;;;7.80;99.40;;;;;;5050611;28;20037;-51
2024/01/29 06:11:36;;;;;;;3.43;1.60;;;7.80;99.40;;;;;;5051631;28;20116;-51
2024/01/29 06:14:02;;;;;;;3.70;1.70;;;7.80;99.60;;;;;;5051909;28;20079;-54
2024/01/29 06:16:28;;;;;;;5.30;1.80;;;7.70;99.80;;;;;;5052301;28;20036;-52
2024/01/29 06:18:57;;;;;;;3.60;1.67;;;7.70;99.90;;;;;;5051640;28;20474;-51
2024/01/29 06:21:23;;;;;;;4.40;1.80;;;7.70;99.90;;;;;;5051989;28;20029;-54
2024/01/29 06:23:49;;;;;;;5.40;1.93;;;7.60;99.90;;;;;;5051520;28;20033;-54
2024/01/29 06:26:14;;;;;;;4.63;1.70;;;7.70;99.90;;;;;;5050338;28;20043;-52
2024/01/29 06:28:43;;;;;;;5.57;1.70;;;7.70;99.90;;;;;;5051607;28;20040;-55
2024/01/29 06:31:09;;;;;;;4.20;1.60;;;7.60;99.90;;;;;;5051797;28;20072;-53
2024/01/29 06:33:40;;;;;;;5.13;1.67;;;7.70;99.90;;;;;;5051411;28;20103;-51
2024/01/29 06:36:06;;;;;;;5.23;1.73;;;7.70;99.90;;;;;;5052305;28;20033;-54
2024/01/29 06:38:32;;;;;;;2.70;1.43;;;7.70;99.90;;;;;;5051467;28;20386;-52
2024/01/29 06:40:58;;;;;;;2.97;1.67;;;7.70;99.90;;;;;;5051221;28;20086;-53
2024/01/29 06:43:24;;;;;;;4.07;1.80;;;7.70;99.90;;;;;;5050955;28;20063;-54
2024/01/29 06:45:50;;;;;;;4.57;1.93;;;7.70;99.90;;;;;;5065992;28;20044;-55
2024/01/29 06:48:18;;;;;;;3.40;1.50;;;7.70;99.90;;;;;;5049971;28;20111;-52
2024/01/29 06:50:44;;;;;;;3.07;1.67;;;7.70;99.90;;;;;;5051695;28;20094;-53
2024/01/29 06:53:10;;;;;;;5.23;1.60;;;7.70;99.90;;;;;;5051128;28;20112;-53
2024/01/29 06:55:35;;;;;;;3.77;1.97;;;7.60;99.90;;;;;;5051413;28;20450;-50
2024/01/29 06:58:01;;;;;;;2.93;2.07;;;7.60;99.90;;;;;;5049504;28;20039;-54
2024/01/29 07:00:27;;;;;;;3.50;1.63;;;7.60;99.90;;;;;;5050981;28;20080;-53
2024/01/29 07:02:52;;;;;;;3.57;2.00;;;7.60;99.90;;;;;;5051229;28;20033;-51
2024/01/29 07:05:18;;;;;;;3.80;1.57;;;7.60;99.90;;;;;;5050981;28;20474;-53
2024/01/29 07:07:44;;;;;;;4.77;1.80;;;7.60;99.90;;;;;;5051104;28;20045;-53
2024/01/29 07:10:09;;;;;;;4.47;1.87;;;7.60;99.90;;;;;;5050709;28;20090;-52
2024/01/29 07:12:35;;;;;;;4.13;1.80;;;7.60;99.90;;;;;;5050831;28;20065;-54
2024/01/29 07:15:01;;;;;;;4.63;1.93;;;7.60;99.90;;;;;;5050960;28;20024;-54
2024/01/29 07:17:27;;;;;;;3.03;1.80;;;7.60;99.90;;;;;;5050908;28;20039;-53
2024/01/29 07:19:52;;;;;;;4.20;2.17;;;7.50;99.90;;;;;;5050752;28;20108;-51
2024/01/29 07:22:19;;;;;;;4.00;1.83;;;7.50;99.90;;;;;;5050533;28;20033;-53
2024/01/29 07:24:48;;;;;;;5.37;1.87;;;7.50;99.90;;;;;;5050528;28;20033;-55
2024/01/29 07:27:17;;;;;;;12.20;5.57;;;7.50;99.90;;;;;;5050050;28;20021;-54
2024/01/29 07:29:44;;;;;;;5.47;2.55;;;7.50;99.90;;;;;;5049938;28;20039;-55
2024/01/29 07:32:10;;;;;;;8.53;2.60;;;7.50;99.90;;;;;;5050543;28;20048;-55
2024/01/29 07:34:36;;;;;;;3.70;1.93;;;7.50;99.90;;;;;;5050379;28;20025;-51
2024/01/29 07:37:02;;;;;;;4.53;2.10;;;7.50;99.90;;;;;;5049356;28;20029;-52
2024/01/29 07:39:28;;;;;;;4.77;2.20;;;7.50;99.90;;;;;;5050389;28;20039;-55
2024/01/29 07:41:54;;;;;;;7.10;2.20;;;7.40;99.90;;;;;;5050488;28;20120;-55
2024/01/29 07:44:20;;;;;;;3.87;1.77;;;7.40;99.90;;;;;;5050321;28;20041;-52
2024/01/29 07:46:46;;;;;;;4.83;1.90;;;7.30;99.90;;;;;;5050510;28;20028;-50
2024/01/29 07:49:12;;;;;;;6.23;2.20;;;7.30;99.90;;;;;;5050436;28;20478;-50
2024/01/29 07:51:40;;;;;;;5.27;2.10;;;7.30;99.90;;;;;;5050362;28;20112;-51
2024/01/29 07:54:07;;;;;;;6.10;2.78;;;7.30;99.90;;;;;;5049817;28;20057;-53
2024/01/29 07:56:33;;;;;;;4.83;2.03;;;7.40;99.90;;;;;;5050347;28;20052;-53
2024/01/29 07:58:59;;;;;;;5.10;2.10;;;7.50;99.90;;;;;;5050218;28;20528;-53
2024/01/29 08:01:24;;;;;;;4.90;1.93;;;7.50;99.90;;;;;;5050351;28;20130;-54
2024/01/29 08:03:50;;;;;;;5.47;2.23;;;7.50;99.90;;;;;;5050154;28;20033;-55
2024/01/29 08:06:15;;;;;;;5.73;1.93;;;7.50;99.90;;;;;;5049094;28;20513;-55
2024/01/29 08:08:41;;;;;;;5.17;2.50;;;7.60;99.90;;;;;;5050118;28;20040;-55
2024/01/29 08:11:07;;;;;;;5.17;2.17;;;7.60;99.90;;;;;;5050335;28;20474;-54
2024/01/29 08:13:32;;;;;;;4.07;1.60;;;7.70;99.90;;;;;;5050167;28;20025;-54
2024/01/29 08:15:59;;;;;;;3.87;1.90;;;7.70;99.90;;;;;;5065547;28;20036;-55
2024/01/29 08:18:25;;;;;;;3.50;1.77;;;7.80;99.90;;;;;;5052154;28;20033;-54
2024/01/29 08:20:51;;;;;;;4.47;1.80;;;7.80;99.90;;;;;;5054703;28;20056;-53
2024/01/29 08:23:16;;;;;;;4.97;2.20;;;7.80;99.90;;;;;;5053766;28;20025;-48
2024/01/29 08:25:42;;;;;;;6.80;1.93;;;7.90;99.90;;;;;;5052258;28;20498;-53
2024/01/29 08:28:08;;;;;;;6.50;2.10;;;8.00;99.90;;;;;;5054351;28;20025;-48
2024/01/29 08:30:33;;;;;;;4.13;1.60;;;8.10;99.90;;;;;;5049393;28;20486;-51
2024/01/29 08:32:59;;;;;;;4.43;2.00;;;8.20;99.90;;;;;;5049973;28;20033;-52
2024/01/29 08:35:24;;;;;;;5.20;2.20;;;8.20;99.90;;;;;;5053134;28;20358;-49
2024/01/29 08:37:50;;;;;;;5.43;2.37;;;8.20;99.90;;;;;;5054229;28;20021;-51
2024/01/29 08:40:16;;;;;;;5.93;2.27;;;8.40;99.90;;;;;;5053591;28;20068;-51
2024/01/29 08:42:41;;;;;;;6.70;2.30;;;8.40;99.90;;;;;;5051836;28;20478;-53
2024/01/29 08:45:07;;;;;;;6.03;2.17;;;8.50;99.90;;;;;;5053693;28;20025;-50
2024/01/29 08:47:33;;;;;;;5.73;2.60;;;8.50;99.90;;;;;;5053694;28;20111;-49
2024/01/29 08:49:59;;;;;;;5.30;2.80;;;8.60;99.90;;;;;;5053579;28;20033;-50
2024/01/29 08:52:24;;;;;;;5.10;2.30;;;8.60;99.90;;;;;;5053890;28;20065;-49
2024/01/29 08:54:50;;;;;;;4.00;2.27;;;8.60;99.90;;;;;;5052131;28;20037;-50
2024/01/29 08:57:16;;;;;;;6.70;2.20;;;8.70;99.90;;;;;;5055872;28;20485;-51
2024/01/29 08:59:42;;;;;;;4.80;2.37;;;8.70;99.90;;;;;;5066379;28;20116;-51
2024/01/29 09:02:08;;;;;;;4.30;2.40;;;8.70;99.90;;;;;;5073473;28;20036;-53
2024/01/29 09:04:33;;;;;;;4.63;2.20;;;8.80;99.90;;;;;;5071745;28;20427;-53
2024/01/29 09:06:59;;;;;;;4.83;2.70;;;8.80;99.90;;;;;;5073416;28;20055;-53
2024/01/29 09:09:25;;;;;;;9.37;3.80;;;8.90;99.90;;;;;;5073110;28;20032;-54
2024/01/29 09:11:51;;;;;;;5.90;2.60;;;9.00;99.90;;;;;;5073324;28;20074;-54
2024/01/29 09:14:19;;;;;;;6.27;2.60;;;9.10;99.90;;;;;;5072771;28;20488;-53
2024/01/29 09:16:45;;;;;;;4.20;2.47;;;9.20;99.90;;;;;;5071337;28;20021;-50
2024/01/29 09:19:12;;;;;;;7.17;2.70;;;9.20;99.90;;;;;;5072476;28;20477;-53
2024/01/29 09:21:38;;;;;;;7.47;2.63;;;9.30;99.90;;;;;;5072752;28;20140;-50
2024/01/29 09:24:04;;;;;;;8.53;2.93;;;9.40;99.90;;;;;;5070301;28;20493;-52
2024/01/29 09:26:30;;;;;;;27.03;6.37;;;9.50;99.90;;;;;;5052910;28;20420;-49
2024/01/29 09:28:56;;;;;;;12.00;3.20;;;9.60;99.90;;;;;;5052132;28;20055;-47
2024/01/29 09:31:21;;;;;;;5.63;2.80;;;9.60;99.90;;;;;;5051359;28;20032;-48
2024/01/29 09:33:47;;;;;;;6.33;3.27;;;9.80;99.90;;;;;;5052456;28;20068;-49
2024/01/29 09:36:12;;;;;;;11.23;2.93;;;10.00;99.90;;;;;;5052578;28;20036;-49
2024/01/29 09:38:38;;;;;;;5.83;2.63;;;10.30;99.90;;;;;;5052934;28;20044;-53
2024/01/29 09:41:04;;;;;;;5.60;2.50;;;10.70;99.90;;;;;;5052586;28;20036;-52
2024/01/29 09:43:33;;;;;;;5.53;2.70;;;11.50;99.50;;;;;;5051123;28;20777;-50
2024/01/29 09:46:02;;;;;;;4.45;1.98;;;12.30;98.50;;;;;;5050982;28;20497;-51
2024/01/29 09:48:28;;;;;;;4.75;2.67;;;13.00;97.20;;;;;;5051803;28;20367;-51
2024/01/29 09:50:55;;;;;;;5.10;2.38;;;13.70;95.90;;;;;;5051992;28;20028;-49
2024/01/29 09:53:22;;;;;;;7.82;2.60;;;14.20;94.60;;;;;;5051900;28;20111;-53
2024/01/29 09:55:48;;;;;;;6.80;2.60;;;14.60;93.40;;;;;;5052203;28;20037;-51
2024/01/29 09:58:14;;;;;;;7.07;3.15;;;14.70;93.40;;;;;;5051667;28;20029;-53
2024/01/29 10:00:40;;;;;;;4.75;2.60;;;14.80;93.50;;;;;;5051970;28;20039;-52
2024/01/29 10:03:10;;;;;;;6.55;2.88;;;14.90;92.60;;;;;;5051878;28;20115;-52
2024/01/29 10:05:37;;;;;;;6.68;2.80;;;14.90;92.70;;;;;;5051832;28;20029;-50
2024/01/29 10:08:03;;;;;;;5.65;2.83;;;15.00;92.30;;;;;;5051516;28;20029;-53
2024/01/29 10:10:29;;;;;;;6.13;3.00;;;15.00;92.40;;;;;;5050136;28;20365;-50
2024/01/29 10:13:07;;;;;;;5.60;3.10;;;15.20;92.20;;;;;;5051952;28;20029;-53
2024/01/29 10:15:33;;;;;;;6.47;3.05;;;15.20;92.30;;;;;;5051725;28;20041;-50
2024/01/29 10:17:59;;;;;;;9.02;3.33;;;15.40;91.60;;;;;;5051623;28;20128;-53
2024/01/29 10:20:25;;;;;;;5.80;2.63;;;15.40;91.20;;;;;;5051544;28;20032;-49
2024/01/29 10:23:02;;;;;;;5.80;2.70;;;15.60;91.30;;;;;;5051681;28;20058;-52
2024/01/29 10:25:29;;;;;;;5.13;2.70;;;15.90;91.10;;;;;;5051136;28;20056;-52
2024/01/29 10:28:08;;;;;;;8.45;3.33;;;16.00;90.80;;;;;;5050097;28;20058;-50
2024/01/29 10:30:33;;;;;;;4.88;2.72;;;16.20;90.50;;;;;;5049735;28;20130;-51
2024/01/29 10:32:59;;;;;;;5.43;2.58;;;16.60;89.30;;;;;;5051687;28;20080;-51
2024/01/29 10:35:25;;;;;;;7.05;3.40;;;16.60;89.40;;;;;;5050193;28;20025;-54
2024/01/29 10:38:01;;;;;;;4.75;2.70;;;16.80;88.80;;;;;;5050260;28;20025;-49
2024/01/29 10:40:28;;;;;;;5.45;2.88;;;16.60;88.90;;;;;;5050369;28;20037;-51
2024/01/29 10:42:57;;;;;;;5.82;2.88;;;16.40;88.10;;;;;;5051325;28;20025;-54
2024/01/29 10:45:23;;;;;;;5.53;2.25;;;16.20;89.80;;;;;;5049956;28;20037;-54
2024/01/29 10:47:52;;;;;;;4.95;2.67;;;16.10;90.50;;;;;;5051448;28;20037;-52
2024/01/29 10:50:19;;;;;;;6.18;2.80;;;16.20;89.60;;;;;;5051147;28;20400;-53
2024/01/29 10:52:47;;;;;;;5.70;3.00;;;16.00;90.30;;;;;;5050127;28;20422;-52
2024/01/29 10:55:16;;;;;;;5.97;2.72;;;15.70;90.50;;;;;;5051345;28;20439;-54
2024/01/29 10:57:46;;;;;;;5.72;2.83;;;15.50;90.70;;;;;;5051186;28;20025;-51
2024/01/29 11:00:14;;;;;;;6.72;3.00;;;15.60;90.70;;;;;;5051301;28;20029;-52
2024/01/29 11:02:40;;;;;;;4.93;2.97;;;15.70;90.50;;;;;;5051674;28;20041;-52
2024/01/29 11:05:08;;;;;;;4.25;2.70;;;15.70;90.50;;;;;;5051207;28;20433;-51
2024/01/29 11:07:34;;;;;;;5.88;2.70;;;15.70;90.80;;;;;;5051398;28;20459;-51
2024/01/29 11:10:16;;;;;;;5.53;2.97;;;15.70;90.90;;;;;;5050885;28;20401;-53
2024/01/29 11:12:42;;;;;;;5.90;2.83;;;15.70;90.60;;;;;;5051165;28;20235;-50
2024/01/29 11:15:10;;;;;;;5.38;2.85;;;15.70;91.10;;;;;;5051067;28;20039;-50
2024/01/29 11:17:35;;;;;;;5.35;2.83;;;15.90;90.90;;;;;;5051074;28;20044;-53
2024/01/29 11:20:04;;;;;;;7.00;3.17;;;16.10;90.50;;;;;;5050650;28;20398;-54
2024/01/29 11:22:50;;;;;;;7.28;3.47;;;16.10;90.20;;;;;;5050994;28;20435;-51
2024/01/29 11:25:16;;;;;;;4.75;2.58;;;16.00;90.30;;;;;;5050733;28;20033;-51
2024/01/29 11:27:43;;;;;;;4.65;2.70;;;15.90;90.50;;;;;;5050619;28;20052;-50
2024/01/29 11:30:27;;;;;;;8.27;3.90;;;16.20;90.30;;;;;;5050726;28;20051;-52
2024/01/29 11:32:55;;;;;;;5.10;2.78;;;16.10;90.20;;;;;;5050599;28;20036;-52
2024/01/29 11:35:22;;;;;;;6.28;2.97;;;16.10;90.40;;;;;;5050558;28;20354;-53
2024/01/29 11:37:51;;;;;;;4.82;2.70;;;16.10;90.70;;;;;;5050422;28;20036;-52
2024/01/29 11:40:33;;;;;;;6.10;2.75;;;16.40;89.80;;;;;;5050482;28;20487;-54
2024/01/29 11:43:19;;;;;;;5.97;2.65;;;16.20;90.10;;;;;;5050688;28;20029;-51
2024/01/29 11:45:49;;;;;;;5.15;2.83;;;16.10;90.30;;;;;;5051201;28;20033;-53
2024/01/29 11:48:17;;;;;;;5.28;2.85;;;16.20;90.30;;;;;;5050457;28;20044;-52
2024/01/29 11:50:45;;;;;;;5.38;2.60;;;16.30;89.80;;;;;;5050171;28;20069;-50
2024/01/29 11:53:19;;;;;;;4.97;2.83;;;16.50;89.20;;;;;;5050045;28;20025;-49
2024/01/29 11:55:47;;;;;;;5.03;2.50;;;16.30;90.00;;;;;;5050236;28;20082;-50
2024/01/29 11:58:18;;;;;;;6.32;2.63;;;16.00;90.20;;;;;;5050185;28;20032;-53
2024/01/29 12:00:45;;;;;;;4.63;2.83;;;15.80;90.70;;;;;;5050347;28;20405;-51
2024/01/29 12:03:16;;;;;;;4.90;2.75;;;15.70;91.30;;;;;;5048607;28;20481;-52
2024/01/29 12:05:42;;;;;;;7.38;2.90;;;15.90;90.70;;;;;;5050195;28;20490;-50
2024/01/29 12:08:26;;;;;;;6.35;2.53;;;16.10;91.00;;;;;;5050137;28;20132;-51
2024/01/29 12:10:59;;;;;;;6.25;3.05;;;16.10;90.70;;;;;;5053935;28;20033;-52
2024/01/29 12:13:24;;;;;;;5.80;2.50;;;16.10;90.80;;;;;;5054066;28;20104;-53
2024/01/29 12:15:55;;;;;;;6.65;3.10;;;16.20;90.70;;;;;;5054187;28;20132;-52
2024/01/29 12:18:25;;;;;;;4.90;2.58;;;16.20;90.50;;;;;;5053981;28;20393;-50
2024/01/29 12:20:51;;;;;;;5.22;3.15;;;16.10;90.40;;;;;;5054214;28;20063;-50
2024/01/29 12:23:20;;;;;;;7.30;2.55;;;16.00;90.80;;;;;;5053786;28;20036;-50
2024/01/29 12:25:50;;;;;;;6.32;2.95;;;15.70;91.30;;;;;;5054082;28;20029;-53
2024/01/29 12:28:16;;;;;;;5.63;3.20;;;15.50;91.80;;;;;;5053951;28;20036;-50
2024/01/29 12:30:42;;;;;;;5.47;2.63;;;15.60;92.30;;;;;;5054293;28;20520;-49
2024/01/29 12:33:16;;;;;;;5.47;2.92;;;15.70;91.70;;;;;;5054057;28;20211;-49
2024/01/29 12:35:42;;;;;;;5.30;2.42;;;15.70;91.90;;;;;;5052579;28;20025;-51
2024/01/29 12:38:11;;;;;;;5.65;2.78;;;16.00;91.30;;;;;;5053843;28;20462;-53
2024/01/29 12:40:39;;;;;;;6.28;2.70;;;16.10;91.60;;;;;;5054049;28;20083;-52
2024/01/29 12:43:05;;;;;;;5.93;2.95;;;16.40;90.80;;;;;;5053790;28;20032;-49
2024/01/29 12:45:32;;;;;;;5.65;2.83;;;16.60;90.90;;;;;;5054030;28;20044;-50
2024/01/29 12:48:12;;;;;;;8.00;3.13;;;16.70;90.70;;;;;;5053603;28;20025;-53
2024/01/29 12:50:41;;;;;;;4.47;2.78;;;16.90;90.50;;;;;;5053779;28;20037;-51
2024/01/29 12:53:10;;;;;;;;;;;17.00;90.40;;;;;;5054353;28;20029;-54